createdAt,value
2018-06-13T00:00:02.521Z,12.70
2018-06-13T00:02:31.045Z,12.70
2018-06-13T00:04:59.500Z,12.60
2018-06-13T00:07:28.033Z,12.60
2018-06-13T00:09:56.503Z,12.50
2018-06-13T00:12:31.636Z,12.50
2018-06-13T00:15:00.223Z,12.40
2018-06-13T00:17:28.918Z,12.40
2018-06-13T00:19:57.698Z,12.40
2018-06-13T00:22:26.129Z,12.40
2018-06-13T00:24:54.564Z,12.40
2018-06-13T00:27:23.041Z,12.30
2018-06-13T00:29:51.462Z,12.40
2018-06-13T00:34:48.116Z,12.50
2018-06-13T00:37:16.500Z,12.60
2018-06-13T00:39:45.049Z,12.70
2018-06-13T00:42:13.435Z,12.70
2018-06-13T00:44:41.949Z,12.70
2018-06-13T00:47:10.328Z,12.80
2018-06-13T00:49:38.923Z,12.80
2018-06-13T00:52:07.575Z,12.80
2018-06-13T00:54:36.042Z,12.80
2018-06-13T00:57:04.745Z,12.90
2018-06-13T00:59:33.125Z,12.90
2018-06-13T01:02:01.657Z,12.90
2018-06-13T01:04:30.182Z,12.90
2018-06-13T01:06:59.047Z,12.90
2018-06-13T01:09:27.900Z,12.90
2018-06-13T01:11:56.366Z,12.90
2018-06-13T01:14:24.813Z,12.90
2018-06-13T01:16:53.329Z,12.90
2018-06-13T01:19:21.863Z,13.00
2018-06-13T01:21:50.292Z,13.00
2018-06-13T01:24:18.727Z,13.10
2018-06-13T01:26:47.158Z,13.10
2018-06-13T01:29:15.590Z,13.20
2018-06-13T01:31:44.216Z,13.20
2018-06-13T01:34:12.656Z,13.10
2018-06-13T01:36:41.088Z,13.00
2018-06-13T01:39:09.641Z,13.00
2018-06-13T01:41:38.071Z,12.90
2018-06-13T01:44:06.504Z,12.90
2018-06-13T01:46:34.932Z,12.90
2018-06-13T01:49:03.356Z,12.90
2018-06-13T01:51:31.803Z,12.90
2018-06-13T01:54:00.352Z,12.90
2018-06-13T01:56:28.802Z,12.90
2018-06-13T01:58:57.294Z,13.00
2018-06-13T02:01:25.724Z,13.10
2018-06-13T02:03:54.169Z,13.00
2018-06-13T02:06:22.639Z,13.00
2018-06-13T02:08:51.159Z,13.00
2018-06-13T02:11:19.580Z,13.10
2018-06-13T02:13:48.074Z,13.10
2018-06-13T02:16:16.549Z,13.20
2018-06-13T02:18:44.955Z,13.30
2018-06-13T02:21:13.565Z,13.30
2018-06-13T02:23:41.980Z,13.20
2018-06-13T02:26:10.621Z,13.20
2018-06-13T02:28:39.019Z,13.20
2018-06-13T02:31:07.797Z,13.20
2018-06-13T02:33:36.174Z,13.20
2018-06-13T02:36:04.628Z,13.40
2018-06-13T02:38:33.098Z,13.40
2018-06-13T02:41:01.721Z,13.30
2018-06-13T02:43:30.108Z,13.30
2018-06-13T02:45:58.636Z,13.30
2018-06-13T02:48:27.065Z,13.40
2018-06-13T02:50:55.519Z,13.50
2018-06-13T02:53:23.902Z,13.40
2018-06-13T02:55:52.400Z,13.40
2018-06-13T02:58:20.930Z,13.40
2018-06-13T03:00:49.515Z,13.50
2018-06-13T03:03:17.932Z,13.50
2018-06-13T03:05:46.566Z,13.40
2018-06-13T03:08:15.061Z,13.50
2018-06-13T03:10:43.523Z,13.40
2018-06-13T03:13:12.052Z,13.40
2018-06-13T03:15:40.467Z,13.50
2018-06-13T03:18:09.009Z,13.60
2018-06-13T03:20:37.480Z,13.50
2018-06-13T03:23:06.093Z,13.50
2018-06-13T03:25:34.688Z,13.50
2018-06-13T03:28:03.332Z,13.60
2018-06-13T03:30:31.752Z,13.50
2018-06-13T03:33:00.211Z,13.50
2018-06-13T03:35:28.649Z,13.60
2018-06-13T03:37:57.242Z,13.60
2018-06-13T03:40:25.712Z,13.60
2018-06-13T03:42:54.360Z,13.60
2018-06-13T03:45:22.793Z,13.70
2018-06-13T03:47:51.224Z,13.70
2018-06-13T03:50:19.759Z,13.80
2018-06-13T03:52:48.185Z,13.80
2018-06-13T03:57:44.716Z,13.80
2018-06-13T04:00:13.091Z,13.90
2018-06-13T04:02:41.834Z,13.90
2018-06-13T04:05:10.221Z,13.90
2018-06-13T04:07:38.977Z,13.90
2018-06-13T04:10:07.445Z,14.00
2018-06-13T04:12:35.876Z,14.00
2018-06-13T04:15:04.356Z,14.00
2018-06-13T04:17:32.755Z,14.00
2018-06-13T04:20:01.160Z,14.10
2018-06-13T04:22:29.986Z,14.10
2018-06-13T04:24:58.429Z,14.10
2018-06-13T04:27:26.848Z,14.10
2018-06-13T04:29:55.422Z,14.20
2018-06-13T04:32:23.986Z,14.10
2018-06-13T04:34:53.621Z,14.10
2018-06-13T04:37:22.031Z,14.20
2018-06-13T04:39:50.851Z,14.20
2018-06-13T04:42:19.247Z,14.40
2018-06-13T04:44:47.720Z,14.50
2018-06-13T04:47:16.083Z,14.70
2018-06-13T04:49:44.640Z,14.70
2018-06-13T04:52:13.053Z,14.70
2018-06-13T04:54:41.499Z,14.90
2018-06-13T04:57:10.058Z,14.90
2018-06-13T04:59:38.441Z,15.00
2018-06-13T05:02:07.079Z,14.90
2018-06-13T05:04:35.697Z,14.70
2018-06-13T05:07:04.586Z,14.80
2018-06-13T05:09:33.460Z,14.90
2018-06-13T05:12:01.883Z,14.80
2018-06-13T05:14:30.471Z,14.90
2018-06-13T05:16:59.028Z,15.00
2018-06-13T05:19:28.080Z,15.00
2018-06-13T05:21:56.569Z,15.00
2018-06-13T05:24:25.074Z,14.90
2018-06-13T05:26:53.485Z,14.90
2018-06-13T05:29:22.049Z,15.10
2018-06-13T05:31:50.448Z,15.10
2018-06-13T05:34:18.930Z,15.20
2018-06-13T05:36:47.393Z,15.20
2018-06-13T05:39:16.281Z,15.10
2018-06-13T05:41:44.686Z,15.40
2018-06-13T05:44:14.061Z,15.60
2018-06-13T05:46:42.565Z,15.50
2018-06-13T05:49:11.110Z,15.80
2018-06-13T05:51:39.637Z,15.90
2018-06-13T05:54:08.395Z,16.10
2018-06-13T05:56:36.805Z,16.40
2018-06-13T05:59:05.276Z,16.30
2018-06-13T06:01:33.719Z,16.20
2018-06-13T06:04:02.257Z,16.40
2018-06-13T06:06:31.020Z,16.10
2018-06-13T06:08:59.864Z,16.00
2018-06-13T06:11:28.347Z,16.30
2018-06-13T06:13:56.765Z,16.70
2018-06-13T06:16:25.192Z,16.80
2018-06-13T06:18:53.929Z,17.10
2018-06-13T06:21:22.312Z,17.10
2018-06-13T06:23:50.740Z,17.40
2018-06-13T06:26:19.163Z,17.10
2018-06-13T06:28:47.641Z,17.00
2018-06-13T06:31:16.216Z,17.00
2018-06-13T06:33:44.738Z,17.40
2018-06-13T06:36:13.169Z,17.20
2018-06-13T06:38:41.960Z,17.40
2018-06-13T06:41:10.525Z,17.70
2018-06-13T06:43:38.904Z,18.00
2018-06-13T06:46:07.460Z,18.30
2018-06-13T06:48:35.984Z,18.30
2018-06-13T06:53:33.897Z,18.20
2018-06-13T06:56:02.462Z,18.70
2018-06-13T06:58:30.853Z,18.60
2018-06-13T07:00:59.424Z,18.90
2018-06-13T07:03:28.272Z,18.60
2018-06-13T07:05:56.718Z,18.60
2018-06-13T07:08:25.116Z,18.40
2018-06-13T07:10:53.572Z,18.20
2018-06-13T07:13:22.189Z,18.00
2018-06-13T07:15:51.295Z,18.00
2018-06-13T07:18:19.723Z,18.10
2018-06-13T07:20:48.440Z,17.90
2018-06-13T07:25:44.932Z,18.00
2018-06-13T07:28:13.450Z,17.60
2018-06-13T07:30:42.343Z,17.60
2018-06-13T07:33:10.928Z,17.60
2018-06-13T07:35:39.489Z,17.80
2018-06-13T07:38:08.365Z,17.90
2018-06-13T07:40:36.938Z,17.80
2018-06-13T07:43:05.367Z,18.30
2018-06-13T07:45:33.796Z,18.30
2018-06-13T07:48:02.190Z,18.60
2018-06-13T07:50:30.660Z,18.40
2018-06-13T07:52:59.078Z,18.30
2018-06-13T07:55:27.543Z,18.00
2018-06-13T07:57:55.947Z,18.00
2018-06-13T08:00:24.375Z,17.80
2018-06-13T08:02:52.822Z,18.40
2018-06-13T08:05:21.277Z,18.20
2018-06-13T08:07:49.657Z,18.00
2018-06-13T08:10:18.120Z,18.30
2018-06-13T08:12:46.588Z,18.40
2018-06-13T08:15:15.017Z,18.50
2018-06-13T08:17:43.477Z,18.70
2018-06-13T08:20:11.875Z,18.30
2018-06-13T08:22:40.473Z,18.50
2018-06-13T08:25:08.929Z,18.40
2018-06-13T08:27:47.761Z,18.70
2018-06-13T08:30:16.492Z,18.70
2018-06-13T08:32:45.013Z,18.20
2018-06-13T08:35:13.452Z,17.70
2018-06-13T08:37:41.892Z,17.40
2018-06-13T08:40:10.368Z,17.20
2018-06-13T08:42:38.761Z,17.20
2018-06-13T08:45:07.406Z,17.40
2018-06-13T08:47:35.817Z,17.50
2018-06-13T08:50:04.305Z,17.40
2018-06-13T08:52:33.062Z,17.20
2018-06-13T08:55:01.441Z,17.50
2018-06-13T08:57:29.949Z,17.50
2018-06-13T08:59:58.451Z,17.90
2018-06-13T09:02:26.891Z,18.40
2018-06-13T09:04:55.268Z,18.80
2018-06-13T09:07:23.675Z,18.80
2018-06-13T09:09:52.203Z,18.40
2018-06-13T09:12:20.597Z,18.90
2018-06-13T09:14:49.021Z,19.20
2018-06-13T09:17:17.432Z,19.70
2018-06-13T09:19:45.844Z,19.40
2018-06-13T09:22:14.564Z,19.60
2018-06-13T09:24:42.961Z,19.70
2018-06-13T09:27:11.396Z,19.50
2018-06-13T09:29:39.915Z,19.80
2018-06-13T09:32:08.323Z,19.90
2018-06-13T09:34:36.854Z,19.30
2018-06-13T09:39:33.632Z,18.90
2018-06-13T09:42:02.964Z,18.80
2018-06-13T09:44:31.410Z,18.30
2018-06-13T09:47:06.900Z,18.10
2018-06-13T09:49:28.303Z,18.20
2018-06-13T09:51:56.700Z,18.00
2018-06-13T09:54:25.197Z,17.70
2018-06-13T09:56:53.702Z,18.10
2018-06-13T09:59:22.103Z,18.30
2018-06-13T10:01:55.737Z,18.60
2018-06-13T10:04:24.116Z,18.90
2018-06-13T10:06:52.543Z,18.90
2018-06-13T10:09:21.026Z,19.20
2018-06-13T10:11:49.408Z,19.60
2018-06-13T10:14:17.785Z,19.80
2018-06-13T10:16:46.163Z,20.30
2018-06-13T10:19:14.544Z,20.80
2018-06-13T10:21:43.018Z,20.50
2018-06-13T10:24:11.404Z,21.00
2018-06-13T10:26:39.863Z,21.70
2018-06-13T10:29:08.228Z,21.20
2018-06-13T10:31:36.614Z,20.90
2018-06-13T10:34:05.025Z,20.10
2018-06-13T10:36:33.482Z,19.90
2018-06-13T10:39:01.909Z,19.80
2018-06-13T10:41:30.313Z,18.90
2018-06-13T10:46:26.994Z,18.80
2018-06-13T10:48:55.716Z,19.00
2018-06-13T10:51:24.329Z,19.00
2018-06-13T10:53:52.765Z,18.90
2018-06-13T10:56:21.479Z,19.20
2018-06-13T10:58:49.940Z,18.60
2018-06-13T11:01:18.407Z,18.60
2018-06-13T11:03:46.808Z,18.70
2018-06-13T11:06:15.424Z,18.60
2018-06-13T11:08:43.830Z,18.50
2018-06-13T11:11:12.244Z,18.70
2018-06-13T11:13:40.667Z,19.30
2018-06-13T11:16:09.132Z,19.50
2018-06-13T11:18:37.703Z,19.90
2018-06-13T11:21:06.365Z,19.70
2018-06-13T11:23:34.873Z,19.70
2018-06-13T11:26:03.434Z,19.40
2018-06-13T11:28:32.098Z,19.60
2018-06-13T11:31:00.508Z,19.80
2018-06-13T11:33:28.921Z,19.10
2018-06-13T11:35:57.448Z,19.40
2018-06-13T11:38:25.905Z,19.00
2018-06-13T11:40:54.328Z,19.00
2018-06-13T11:43:22.803Z,19.00
2018-06-13T11:45:51.189Z,19.10
2018-06-13T11:48:19.635Z,18.90
2018-06-13T11:50:48.012Z,18.80
2018-06-13T11:53:16.399Z,19.20
2018-06-13T11:55:44.880Z,19.30
2018-06-13T11:58:13.606Z,20.00
2018-06-13T12:00:42.505Z,20.30
2018-06-13T12:03:11.057Z,20.70
2018-06-13T12:05:39.931Z,21.10
2018-06-13T12:08:08.420Z,21.40
2018-06-13T12:10:37.096Z,20.90
2018-06-13T12:13:05.545Z,20.90
2018-06-13T12:15:34.212Z,21.20
2018-06-13T12:18:02.758Z,21.10
2018-06-13T12:20:31.144Z,21.30
2018-06-13T12:22:59.533Z,21.10
2018-06-13T12:25:27.927Z,21.00
2018-06-13T12:27:56.565Z,21.10
2018-06-13T12:30:25.089Z,21.00
2018-06-13T12:32:53.496Z,20.60
2018-06-13T12:35:22.102Z,20.80
2018-06-13T12:37:50.548Z,21.40
2018-06-13T12:40:18.929Z,21.70
2018-06-13T12:45:15.444Z,21.80
2018-06-13T12:47:43.865Z,22.90
2018-06-13T12:50:12.442Z,22.90
2018-06-13T12:52:41.035Z,21.60
2018-06-13T12:55:09.617Z,21.10
2018-06-13T12:57:38.271Z,21.60
2018-06-13T13:00:07.092Z,20.80
2018-06-13T13:02:35.689Z,21.40
2018-06-13T13:05:04.298Z,21.60
2018-06-13T13:07:33.412Z,20.90
2018-06-13T13:10:02.783Z,20.80
2018-06-13T13:12:32.800Z,21.10
2018-06-13T13:15:01.267Z,21.40
2018-06-13T13:17:30.129Z,21.20
2018-06-13T13:19:58.718Z,20.70
2018-06-13T13:22:27.152Z,20.80
2018-06-13T13:24:55.621Z,21.00
2018-06-13T13:27:24.027Z,20.60
2018-06-13T13:29:52.564Z,21.00
2018-06-13T13:32:21.113Z,21.10
2018-06-13T13:34:49.559Z,21.20
2018-06-13T13:37:17.964Z,20.90
2018-06-13T13:39:46.357Z,21.00
2018-06-13T13:42:14.765Z,21.00
2018-06-13T13:44:43.393Z,21.00
2018-06-13T13:47:11.782Z,21.30
2018-06-13T13:49:40.286Z,21.10
2018-06-13T13:52:08.976Z,21.10
2018-06-13T13:54:37.852Z,21.00
2018-06-13T13:57:06.262Z,20.70
2018-06-13T13:59:34.659Z,20.40
2018-06-13T14:02:03.198Z,20.90
2018-06-13T14:04:31.595Z,21.40
2018-06-13T14:07:00.109Z,21.80
2018-06-13T14:09:28.595Z,21.40
2018-06-13T14:11:56.989Z,21.60
2018-06-13T14:14:25.437Z,22.20
2018-06-13T14:16:53.843Z,22.20
2018-06-13T14:19:22.300Z,22.00
2018-06-13T14:21:50.702Z,21.80
2018-06-13T14:24:19.228Z,21.40
2018-06-13T14:26:47.797Z,21.40
2018-06-13T14:29:16.195Z,20.90
2018-06-13T14:31:44.620Z,20.40
2018-06-13T14:34:13.059Z,20.80
2018-06-13T14:36:41.617Z,20.60
2018-06-13T14:39:11.172Z,20.90
2018-06-13T14:41:39.598Z,21.00
2018-06-13T14:44:08.608Z,20.60
2018-06-13T14:46:37.071Z,20.50
2018-06-13T14:49:05.520Z,20.70
2018-06-13T14:51:33.925Z,21.10
2018-06-13T14:56:31.798Z,21.10
2018-06-13T14:59:01.522Z,21.60
2018-06-13T15:01:30.029Z,21.80
2018-06-13T15:03:58.449Z,21.30
2018-06-13T15:06:26.889Z,21.20
2018-06-13T15:08:55.819Z,20.80
2018-06-13T15:11:24.347Z,21.40
2018-06-13T15:13:52.838Z,21.10
2018-06-13T15:16:21.546Z,21.10
2018-06-13T15:18:50.034Z,20.90
2018-06-13T15:21:18.459Z,20.90
2018-06-13T15:23:46.908Z,21.00
2018-06-13T15:26:15.291Z,21.40
2018-06-13T15:28:43.732Z,21.20
2018-06-13T15:31:12.501Z,21.00
2018-06-13T15:33:41.340Z,20.40
2018-06-13T15:36:09.750Z,20.20
2018-06-13T15:38:38.182Z,20.10
2018-06-13T15:41:06.896Z,20.40
2018-06-13T15:43:35.363Z,20.40
2018-06-13T15:46:03.799Z,20.30
2018-06-13T15:48:32.227Z,20.40
2018-06-13T15:51:00.636Z,20.30
2018-06-13T15:53:29.117Z,20.40
2018-06-13T15:55:57.584Z,20.70
2018-06-13T15:58:26.020Z,20.80
2018-06-13T16:00:54.471Z,21.10
2018-06-13T16:03:22.911Z,21.20
2018-06-13T16:05:51.400Z,21.20
2018-06-13T16:08:19.788Z,20.80
2018-06-13T16:10:48.223Z,20.60
2018-06-13T16:13:16.616Z,20.60
2018-06-13T16:15:45.036Z,20.30
2018-06-13T16:18:14.048Z,20.40
2018-06-13T16:20:43.100Z,20.20
2018-06-13T16:23:11.512Z,19.90
2018-06-13T16:25:41.468Z,20.00
2018-06-13T16:28:09.865Z,19.90
2018-06-13T16:30:38.334Z,19.80
2018-06-13T16:33:06.841Z,19.80
2018-06-13T16:35:35.256Z,19.50
2018-06-13T16:38:03.682Z,19.60
2018-06-13T16:40:32.043Z,19.50
2018-06-13T16:43:00.432Z,19.50
2018-06-13T16:45:28.877Z,19.50
2018-06-13T16:47:57.337Z,19.50
2018-06-13T16:50:37.064Z,19.50
2018-06-13T16:54:12.491Z,19.60
2018-06-13T16:56:41.405Z,19.80
2018-06-13T16:59:09.799Z,19.80
2018-06-13T17:01:38.585Z,19.70
2018-06-13T17:04:06.995Z,19.50
2018-06-13T17:06:35.411Z,19.70
2018-06-13T17:09:05.756Z,19.40
2018-06-13T17:11:34.237Z,19.40
2018-06-13T17:14:02.774Z,19.60
2018-06-13T17:16:31.212Z,19.50
2018-06-13T17:18:59.612Z,19.60
2018-06-13T17:21:28.008Z,19.50
2018-06-13T17:23:56.394Z,19.40
2018-06-13T17:26:24.863Z,19.20
2018-06-13T17:28:53.259Z,19.10
2018-06-13T17:31:21.680Z,19.00
2018-06-13T17:33:50.051Z,18.90
2018-06-13T17:36:18.435Z,18.60
2018-06-13T17:38:46.845Z,18.60
2018-06-13T17:41:15.281Z,18.70
2018-06-13T17:43:43.775Z,18.90
2018-06-13T17:46:12.204Z,18.90
2018-06-13T17:48:40.639Z,18.90
2018-06-13T17:51:09.328Z,18.90
2018-06-13T17:53:37.849Z,19.00
2018-06-13T17:56:06.259Z,18.80
2018-06-13T17:58:34.749Z,18.90
2018-06-13T18:01:03.275Z,18.60
2018-06-13T18:03:31.876Z,18.50
2018-06-13T18:06:00.257Z,18.60
2018-06-13T18:08:28.684Z,18.50
2018-06-13T18:10:57.067Z,18.70
2018-06-13T18:13:25.684Z,18.40
2018-06-13T18:15:54.051Z,18.50
2018-06-13T18:18:22.568Z,18.40
2018-06-13T18:20:51.520Z,18.40
2018-06-13T18:23:19.945Z,18.10
2018-06-13T18:25:48.336Z,17.90
2018-06-13T18:28:16.929Z,17.80
2018-06-13T18:30:45.553Z,17.70
2018-06-13T18:33:13.999Z,17.50
2018-06-13T18:35:42.476Z,17.50
2018-06-13T18:38:10.912Z,17.40
2018-06-13T18:40:39.299Z,17.30
2018-06-13T18:43:07.724Z,17.10
2018-06-13T18:45:36.160Z,16.90
2018-06-13T18:48:04.578Z,16.90
2018-06-13T18:50:32.975Z,16.80
2018-06-13T18:53:01.371Z,16.60
2018-06-13T18:55:29.732Z,16.50
2018-06-13T18:57:58.246Z,16.40
2018-06-13T19:00:26.640Z,16.30
2018-06-13T19:02:55.052Z,16.10
2018-06-13T19:05:23.453Z,16.00
2018-06-13T19:07:51.884Z,16.00
2018-06-13T19:10:20.293Z,15.80
2018-06-13T19:12:48.777Z,15.70
2018-06-13T19:15:17.209Z,15.60
2018-06-13T19:17:45.604Z,15.50
2018-06-13T19:20:13.981Z,15.40
2018-06-13T19:22:42.380Z,15.30
2018-06-13T19:25:10.781Z,15.20
2018-06-13T19:27:39.189Z,15.10
2018-06-13T19:30:07.591Z,15.00
2018-06-13T19:32:36.318Z,14.90
2018-06-13T19:35:04.727Z,14.80
2018-06-13T19:37:33.129Z,14.70
2018-06-13T19:40:01.546Z,14.60
2018-06-13T19:42:29.997Z,14.50
2018-06-13T19:44:58.397Z,14.40
2018-06-13T19:47:32.244Z,14.30
2018-06-13T19:50:00.629Z,14.30
2018-06-13T19:52:34.459Z,14.20
2018-06-13T19:55:08.319Z,14.10
2018-06-13T19:57:43.929Z,14.00
2018-06-13T20:00:12.657Z,13.90
2018-06-13T20:02:46.619Z,13.80
2018-06-13T20:05:20.705Z,13.80
2018-06-13T20:07:49.082Z,13.60
2018-06-13T20:10:17.472Z,13.40
2018-06-13T20:12:51.287Z,13.40
2018-06-13T20:15:25.041Z,13.40
2018-06-13T20:17:58.818Z,13.30
2018-06-13T20:20:27.226Z,13.20
2018-06-13T20:22:55.611Z,13.20
2018-06-13T20:25:29.323Z,13.10
2018-06-13T20:29:07.263Z,13.00
2018-06-13T20:31:36.937Z,12.90
2018-06-13T20:34:05.331Z,12.90
2018-06-13T20:36:33.767Z,12.90
2018-06-13T20:39:02.198Z,12.80
2018-06-13T20:41:30.612Z,12.80
2018-06-13T20:43:59.045Z,12.80
2018-06-13T20:46:27.486Z,12.80
2018-06-13T20:48:55.863Z,12.70
2018-06-13T20:51:24.284Z,12.60
2018-06-13T20:53:52.760Z,12.50
2018-06-13T20:56:21.133Z,12.50
2018-06-13T20:58:49.504Z,12.50
2018-06-13T21:01:17.896Z,12.60
2018-06-13T21:03:46.267Z,12.50
2018-06-13T21:06:14.707Z,12.50
2018-06-13T21:08:43.144Z,12.40
2018-06-13T21:11:11.620Z,12.40
2018-06-13T21:13:40.032Z,12.30
2018-06-13T21:16:09.096Z,12.30
2018-06-13T21:18:37.467Z,12.30
2018-06-13T21:21:05.924Z,12.20
2018-06-13T21:23:34.300Z,12.20
2018-06-13T21:26:02.730Z,12.20
2018-06-13T21:28:31.098Z,12.10
2018-06-13T21:30:59.516Z,12.10
2018-06-13T21:33:27.935Z,12.00
2018-06-13T21:35:56.355Z,12.00
2018-06-13T21:38:24.747Z,11.90
2018-06-13T21:40:53.168Z,11.90
2018-06-13T21:43:21.529Z,11.90
2018-06-13T21:45:49.916Z,11.90
2018-06-13T21:48:18.344Z,11.80
2018-06-13T21:50:46.783Z,11.70
2018-06-13T21:53:15.196Z,11.70
2018-06-13T21:55:43.605Z,11.70
2018-06-13T21:58:11.983Z,11.60
2018-06-13T22:00:40.436Z,11.60
2018-06-13T22:03:08.816Z,11.60
2018-06-13T22:05:37.485Z,11.50
2018-06-13T22:08:05.859Z,11.50
2018-06-13T22:10:34.260Z,11.50
2018-06-13T22:13:02.664Z,11.50
2018-06-13T22:15:31.052Z,11.40
2018-06-13T22:17:59.875Z,11.40
2018-06-13T22:20:28.463Z,11.30
2018-06-13T22:22:56.925Z,11.30
2018-06-13T22:25:25.292Z,11.30
2018-06-13T22:27:53.685Z,11.30
2018-06-13T22:30:22.378Z,11.20
2018-06-13T22:32:50.768Z,11.20
2018-06-13T22:35:19.135Z,11.20
2018-06-13T22:37:47.515Z,11.20
2018-06-13T22:40:15.896Z,11.10
2018-06-13T22:42:44.329Z,11.10
2018-06-13T22:45:12.697Z,11.00
2018-06-13T22:47:41.092Z,10.90
2018-06-13T22:50:09.485Z,10.90
2018-06-13T22:52:37.877Z,10.90
2018-06-13T22:55:06.271Z,10.90
2018-06-13T22:57:34.680Z,10.80
2018-06-13T23:00:03.090Z,10.80
2018-06-13T23:02:31.497Z,10.90
2018-06-13T23:04:59.905Z,10.90
2018-06-13T23:07:28.308Z,10.90
2018-06-13T23:09:56.700Z,10.90
2018-06-13T23:12:25.088Z,10.80
2018-06-13T23:14:53.469Z,10.80
2018-06-13T23:17:21.859Z,10.70
2018-06-13T23:19:50.274Z,10.80
2018-06-13T23:22:18.656Z,10.80
2018-06-13T23:24:47.044Z,10.70
2018-06-13T23:27:15.427Z,10.70
2018-06-13T23:29:43.796Z,10.70
2018-06-13T23:32:12.198Z,10.60
2018-06-13T23:34:40.581Z,10.60
2018-06-13T23:37:08.969Z,10.60
2018-06-13T23:39:37.336Z,10.60
2018-06-13T23:42:05.751Z,10.70
2018-06-13T23:44:34.119Z,10.70
2018-06-13T23:47:02.516Z,10.60
2018-06-13T23:49:31.230Z,10.70
2018-06-13T23:51:59.628Z,10.70
2018-06-13T23:54:28.014Z,10.80
2018-06-13T23:56:56.384Z,10.70
2018-06-13T23:59:24.810Z,10.70
